PORT of AGATHONISSI

Land: Greece Land: Greece [GR]
Latitud / Longitud: 37.452475° / 26.966° Visa på kartan
Lokal tid:  [UTC +3]
UN/LOCODE: GRAGN

Fartygsnamn
Ankomst (UTC)
Ankomst (LT)
Avgång (UTC)
Avgång (LT)
Vessel Type: Passagerarfartyg  NISOS KALYMNOS 2014-08-29 13:36:00 2014-08-29 16:36:00 2014-08-29 15:33:00 2014-08-29 18:33:00
Vessel Type: Yachts och övrigt  CLIA 2014-08-28 08:08:00 2014-08-28 11:08:00 2014-08-28 18:06:00 2014-08-28 21:06:00
Vessel Type: Yachts och övrigt  CLOUD ATLAS 2014-08-23 14:16:00 2014-08-23 17:16:00 2014-08-27 07:08:00 2014-08-27 10:08:00
Vessel Type: Passagerarfartyg  NISOS KALYMNOS 2014-08-26 13:38:00 2014-08-26 16:38:00 2014-08-26 14:10:00 2014-08-26 17:10:00
Vessel Type: Tankfartyg  MARIA 2014-08-26 00:18:00 2014-08-26 03:18:00 2014-08-26 09:21:00 2014-08-26 12:21:00
Vessel Type: Yachts och övrigt  CHRISTINA 2014-08-25 13:30:00 2014-08-25 16:30:00 2014-08-26 08:36:00 2014-08-26 11:36:00
Vessel Type: Passagerarfartyg  ANNAEXPRESS 2014-08-25 12:43:00 2014-08-25 15:43:00 2014-08-25 12:58:00 2014-08-25 15:58:00
Vessel Type: Passagerarfartyg  NISOS KALYMNOS 2014-08-24 15:07:00 2014-08-24 18:07:00 2014-08-24 16:25:00 2014-08-24 19:25:00
Vessel Type: Tankfartyg  CHRISANTHI 2014-08-24 06:10:00 2014-08-24 09:10:00 2014-08-24 07:47:00 2014-08-24 10:47:00
Vessel Type: Bogserbåt, lotsbåt etc  PLS 140 2014-08-24 01:17:00 2014-08-24 04:17:00 2014-08-24 06:03:00 2014-08-24 09:03:00

Väntade ankomster


Fartygsnamn
Scheduled Arrival (UTC)
Schemalagd ankomst (lokal tid)
Beräknad ankomst (UTC)
Beräknad ankomst (lokal tid)
Inga uppgifter funna

Wind Forecast


    
Tid (UTC)
Hastighet
Direction
Temperature
2014-08-30 21:00:00 14 knots 358° 27°C
2014-08-31 00:00:00 17 knots 345° 25°C
2014-08-31 03:00:00 17 knots 343° 24°C
2014-08-31 06:00:00 16 knots 332° 24°C
2014-08-31 09:00:00 17 knots 318° 25°C
2014-08-31 12:00:00 18 knots 307° 26°C
2014-08-31 15:00:00 18 knots 307° 27°C
2014-08-31 18:00:00 18 knots 312° 27°C
2014-08-31 21:00:00 16 knots 341° 26°C
2014-09-01 00:00:00 16 knots 344° 26°C
2014-09-01 03:00:00 16 knots 338° 24°C
2014-09-01 06:00:00 14 knots 333° 24°C
2014-09-01 09:00:00 15 knots 309° 24°C
2014-09-01 12:00:00 16 knots 298° 25°C
2014-09-01 15:00:00 15 knots 295° 25°C
2014-09-01 18:00:00 12 knots 288° 25°C
2014-09-01 21:00:00 13 knots 286° 24°C

NO_PHOTO

No Photos for this port. Be the first to upload one!